PWSweather.com
Personal Weather Stations
Station Observations
JTOWN
Canterbrook Farms, Jeffersontown, KY 40299

Canterbrook FarmsJeffersontown, KY 40299

Lat: 38.155364, Lon: -85.47956

Elevation: 510

Station Type: Davis Vantage Pro2

http://www.canterbrookfarms.org/wx

Latest ConditionsUpdated 10:15:00 PM EDT Sunday, Sep 21, 2014
Currently Today's Max Today's Min Today's Average
Temperature 64.0°F17.8°C 79.0°F26.1°C 64.0°F17.8°C 71.6°F22.0°C
Dew Point 50.7°F10.4°C 68.3°F20.2°C 47.0°F8.3°C 60.1°F15.6°C
Winds 1.0 mph N1.6 kmh N 12.0 mph NW19.3 kmh NW - 3.8 mph 6.1 kmh
Wind Gusts 5.0 mph8.0 kmh 20.0 mph32.2 kmh - -
Humidity 62% 98% 34% 71%
Pressure 30.00 in1015.9 mb 30.00 in1015.9 mb 29.83 in1010.2 mb -
Precipitation - 0.02 in0.5 mm - -
Hour Temp Dew Point Humidity Winds Wind Gusts Pressure Precip Precip Rate Daily Precip Total
10:15 PM 64.0°F17.8°C 50.7°F10.4°C 62% 1.0 mph N1.6 kmh N 5.0 mph8.0 kmh 30.00 in1015.9 mb 0.00 in0.0 mm 0.00 in/hr0.0 mm/hr 0.02 in0.5 mm
10:00 PM 64.7°F18.2°C 50.9°F10.5°C 61% 2.0 mph NNW3.2 kmh NNW 5.0 mph8.0 kmh 30.00 in1015.9 mb 0.00 in0.0 mm 0.00 in/hr0.0 mm/hr 0.02 in0.5 mm
09:45 PM 65.5°F18.6°C 51.2°F10.7°C 60% 2.0 mph N3.2 kmh N 8.0 mph12.9 kmh 29.99 in1015.6 mb 0.00 in0.0 mm 0.00 in/hr0.0 mm/hr 0.02 in0.5 mm
09:30 PM 66.3°F19.1°C 51.1°F10.6°C 58% 2.0 mph N3.2 kmh N 8.0 mph12.9 kmh 29.98 in1015.2 mb 0.00 in0.0 mm 0.00 in/hr0.0 mm/hr 0.02 in0.5 mm
09:15 PM 67.4°F19.7°C 50.7°F10.4°C 55% 3.0 mph N4.8 kmh N 11.0 mph17.7 kmh 29.98 in1015.2 mb 0.00 in0.0 mm 0.00 in/hr0.0 mm/hr 0.02 in0.5 mm
09:00 PM 68.3°F20.2°C 50.0°F10.0°C 52% 4.0 mph NW6.4 kmh NW 10.0 mph16.1 kmh 29.97 in1014.9 mb 0.00 in0.0 mm 0.00 in/hr0.0 mm/hr 0.02 in0.5 mm
08:45 PM 68.8°F20.4°C 49.4°F9.7°C 50% 4.0 mph NNW6.4 kmh NNW 10.0 mph16.1 kmh 29.95 in1014.2 mb 0.00 in0.0 mm 0.00 in/hr0.0 mm/hr 0.02 in0.5 mm
08:30 PM 68.6°F20.3°C 49.7°F9.8°C 51% 1.0 mph NNW1.6 kmh NNW 7.0 mph11.3 kmh 29.94 in1013.9 mb 0.00 in0.0 mm 0.00 in/hr0.0 mm/hr 0.02 in0.5 mm
08:15 PM 69.9°F21.1°C 49.9°F9.9°C 49% 3.0 mph NW4.8 kmh NW 8.0 mph12.9 kmh 29.92 in1013.2 mb 0.00 in0.0 mm 0.00 in/hr0.0 mm/hr 0.02 in0.5 mm
08:00 PM 70.8°F21.6°C 49.0°F9.4°C 46% 6.0 mph NW9.7 kmh NW 10.0 mph16.1 kmh 29.92 in1013.2 mb 0.00 in0.0 mm 0.00 in/hr0.0 mm/hr 0.02 in0.5 mm
07:45 PM 71.1°F21.7°C 49.8°F9.9°C 47% 4.0 mph NW6.4 kmh NW 9.0 mph14.5 kmh 29.91 in1012.9 mb 0.00 in0.0 mm 0.00 in/hr0.0 mm/hr 0.02 in0.5 mm
07:30 PM 72.0°F22.2°C 50.1°F10.1°C 46% 6.0 mph NW9.7 kmh NW 13.0 mph20.9 kmh 29.91 in1012.9 mb 0.00 in0.0 mm 0.00 in/hr0.0 mm/hr 0.02 in0.5 mm
07:15 PM 72.7°F22.6°C 49.5°F9.7°C 44% 5.0 mph NW8.0 kmh NW 12.0 mph19.3 kmh 29.90 in1012.5 mb 0.00 in0.0 mm 0.00 in/hr0.0 mm/hr 0.02 in0.5 mm
07:00 PM 73.5°F23.1°C 50.2°F10.1°C 44% 6.0 mph NW9.7 kmh NW 10.0 mph16.1 kmh 29.89 in1012.2 mb 0.00 in0.0 mm 0.00 in/hr0.0 mm/hr 0.02 in0.5 mm
06:45 PM 74.2°F23.4°C 50.3°F10.2°C 43% 6.0 mph NW9.7 kmh NW 13.0 mph20.9 kmh 29.88 in1011.9 mb 0.00 in0.0 mm 0.00 in/hr0.0 mm/hr 0.02 in0.5 mm
06:30 PM 74.6°F23.7°C 48.7°F9.3°C 40% 9.0 mph WNW14.5 kmh WNW 17.0 mph27.4 kmh 29.88 in1011.9 mb 0.00 in0.0 mm 0.00 in/hr0.0 mm/hr 0.02 in0.5 mm
06:15 PM 75.3°F24.1°C 49.3°F9.6°C 40% 8.0 mph WNW12.9 kmh WNW 15.0 mph24.1 kmh 29.87 in1011.5 mb 0.00 in0.0 mm 0.00 in/hr0.0 mm/hr 0.02 in0.5 mm
06:00 PM 75.6°F24.2°C 48.2°F9.0°C 38% 9.0 mph WNW14.5 kmh WNW 18.0 mph29.0 kmh 29.87 in1011.5 mb 0.00 in0.0 mm 0.00 in/hr0.0 mm/hr 0.02 in0.5 mm
05:45 PM 75.8°F24.3°C 49.8°F9.9°C 40% 7.0 mph WNW11.3 kmh WNW 16.0 mph25.7 kmh 29.87 in1011.5 mb 0.00 in0.0 mm 0.00 in/hr0.0 mm/hr 0.02 in0.5 mm
05:30 PM 76.5°F24.7°C 49.0°F9.4°C 38% 8.0 mph WNW12.9 kmh WNW 15.0 mph24.1 kmh 29.86 in1011.2 mb 0.00 in0.0 mm 0.00 in/hr0.0 mm/hr 0.02 in0.5 mm
05:15 PM 76.8°F24.9°C 49.3°F9.6°C 38% 8.0 mph WNW12.9 kmh WNW 16.0 mph25.7 kmh 29.86 in1011.2 mb 0.00 in0.0 mm 0.00 in/hr0.0 mm/hr 0.02 in0.5 mm
05:00 PM 77.2°F25.1°C 48.9°F9.4°C 37% 7.0 mph WNW11.3 kmh WNW 17.0 mph27.4 kmh 29.86 in1011.2 mb 0.00 in0.0 mm 0.00 in/hr0.0 mm/hr 0.02 in0.5 mm
04:45 PM 77.2°F25.1°C 49.6°F9.8°C 38% 8.0 mph W12.9 kmh W 16.0 mph25.7 kmh 29.86 in1011.2 mb 0.00 in0.0 mm 0.00 in/hr0.0 mm/hr 0.02 in0.5 mm
04:30 PM 77.6°F25.3°C 49.3°F9.6°C 37% 7.0 mph WNW11.3 kmh WNW 14.0 mph22.5 kmh 29.86 in1011.2 mb 0.00 in0.0 mm 0.00 in/hr0.0 mm/hr 0.02 in0.5 mm
04:15 PM 77.4°F25.2°C 47.6°F8.7°C 35% 9.0 mph WNW14.5 kmh WNW 17.0 mph27.4 kmh 29.86 in1011.2 mb 0.00 in0.0 mm 0.00 in/hr0.0 mm/hr 0.02 in0.5 mm
04:00 PM 77.7°F25.4°C 47.9°F8.8°C 35% 8.0 mph WNW12.9 kmh WNW 15.0 mph24.1 kmh 29.86 in1011.2 mb 0.00 in0.0 mm 0.00 in/hr0.0 mm/hr 0.02 in0.5 mm
03:45 PM 77.4°F25.2°C 47.6°F8.7°C 35% 9.0 mph W14.5 kmh W 16.0 mph25.7 kmh 29.86 in1011.2 mb 0.00 in0.0 mm 0.00 in/hr0.0 mm/hr 0.02 in0.5 mm
03:30 PM 77.7°F25.4°C 48.6°F9.2°C 36% 9.0 mph WNW14.5 kmh WNW 18.0 mph29.0 kmh 29.86 in1011.2 mb 0.00 in0.0 mm 0.00 in/hr0.0 mm/hr 0.02 in0.5 mm
03:15 PM 77.6°F25.3°C 47.0°F8.3°C 34% 10.0 mph NW16.1 kmh NW 17.0 mph27.4 kmh 29.86 in1011.2 mb 0.00 in0.0 mm 0.00 in/hr0.0 mm/hr 0.02 in0.5 mm
03:00 PM 77.9°F25.5°C 48.8°F9.3°C 36% 11.0 mph NW17.7 kmh NW 19.0 mph30.6 kmh 29.86 in1011.2 mb 0.00 in0.0 mm 0.00 in/hr0.0 mm/hr 0.02 in0.5 mm
02:45 PM 78.1°F25.6°C 49.7°F9.8°C 37% 12.0 mph NW19.3 kmh NW 20.0 mph32.2 kmh 29.85 in1010.8 mb 0.00 in0.0 mm 0.00 in/hr0.0 mm/hr 0.02 in0.5 mm
02:30 PM 78.1°F25.6°C 57.9°F14.4°C 50% 9.0 mph WNW14.5 kmh WNW 15.0 mph24.1 kmh 29.84 in1010.5 mb 0.00 in0.0 mm 0.00 in/hr0.0 mm/hr 0.02 in0.5 mm
02:15 PM 78.8°F26.0°C 63.3°F17.4°C 59% 8.0 mph WNW12.9 kmh WNW 15.0 mph24.1 kmh 29.84 in1010.5 mb 0.00 in0.0 mm 0.00 in/hr0.0 mm/hr 0.02 in0.5 mm
02:00 PM 77.7°F25.4°C 63.2°F17.3°C 61% 8.0 mph WNW12.9 kmh WNW 18.0 mph29.0 kmh 29.84 in1010.5 mb 0.00 in0.0 mm 0.00 in/hr0.0 mm/hr 0.02 in0.5 mm
01:45 PM 78.8°F26.0°C 62.3°F16.8°C 57% 8.0 mph W12.9 kmh W 16.0 mph25.7 kmh 29.84 in1010.5 mb 0.00 in0.0 mm 0.00 in/hr0.0 mm/hr 0.02 in0.5 mm
01:30 PM 77.6°F25.3°C 63.5°F17.5°C 62% 8.0 mph WNW12.9 kmh WNW 14.0 mph22.5 kmh 29.84 in1010.5 mb 0.00 in0.0 mm 0.00 in/hr0.0 mm/hr 0.02 in0.5 mm
01:15 PM 79.0°F26.1°C 63.9°F17.7°C 60% 8.0 mph W12.9 kmh W 17.0 mph27.4 kmh 29.84 in1010.5 mb 0.00 in0.0 mm 0.00 in/hr0.0 mm/hr 0.02 in0.5 mm
01:00 PM 78.6°F25.9°C 64.9°F18.3°C 63% 6.0 mph WSW9.7 kmh WSW 13.0 mph20.9 kmh 29.84 in1010.5 mb 0.00 in0.0 mm 0.00 in/hr0.0 mm/hr 0.02 in0.5 mm
12:45 PM 77.7°F25.4°C 65.9°F18.8°C 67% 7.0 mph WNW11.3 kmh WNW 14.0 mph22.5 kmh 29.85 in1010.8 mb 0.00 in0.0 mm 0.00 in/hr0.0 mm/hr 0.02 in0.5 mm
12:30 PM 77.6°F25.3°C 66.2°F19.0°C 68% 8.0 mph WNW12.9 kmh WNW 18.0 mph29.0 kmh 29.85 in1010.8 mb 0.00 in0.0 mm 0.00 in/hr0.0 mm/hr 0.02 in0.5 mm
12:15 PM 77.7°F25.4°C 66.7°F19.3°C 69% 6.0 mph W9.7 kmh W 13.0 mph20.9 kmh 29.84 in1010.5 mb 0.00 in0.0 mm 0.00 in/hr0.0 mm/hr 0.02 in0.5 mm
12:00 PM 77.2°F25.1°C 65.8°F18.8°C 68% 7.0 mph W11.3 kmh W 17.0 mph27.4 kmh 29.84 in1010.5 mb 0.00 in0.0 mm 0.00 in/hr0.0 mm/hr 0.02 in0.5 mm
11:45 AM 76.5°F24.7°C 66.8°F19.3°C 72% 8.0 mph W12.9 kmh W 16.0 mph25.7 kmh 29.84 in1010.5 mb 0.00 in0.0 mm 0.00 in/hr0.0 mm/hr 0.02 in0.5 mm
11:30 AM 76.3°F24.6°C 66.6°F19.2°C 72% 7.0 mph W11.3 kmh W 15.0 mph24.1 kmh 29.85 in1010.8 mb 0.00 in0.0 mm 0.00 in/hr0.0 mm/hr 0.02 in0.5 mm
11:15 AM 75.6°F24.2°C 67.5°F19.7°C 76% 8.0 mph W12.9 kmh W 15.0 mph24.1 kmh 29.85 in1010.8 mb 0.00 in0.0 mm 0.00 in/hr0.0 mm/hr 0.02 in0.5 mm
11:00 AM 74.9°F23.8°C 67.9°F19.9°C 79% 8.0 mph WNW12.9 kmh WNW 15.0 mph24.1 kmh 29.86 in1011.2 mb 0.00 in0.0 mm 0.00 in/hr0.0 mm/hr 0.02 in0.5 mm
10:45 AM 74.7°F23.7°C 68.1°F20.1°C 80% 7.0 mph W11.3 kmh W 14.0 mph22.5 kmh 29.86 in1011.2 mb 0.00 in0.0 mm 0.00 in/hr0.0 mm/hr 0.02 in0.5 mm
10:30 AM 74.2°F23.4°C 68.3°F20.2°C 82% 4.0 mph WNW6.4 kmh WNW 12.0 mph19.3 kmh 29.86 in1011.2 mb 0.00 in0.0 mm 0.00 in/hr0.0 mm/hr 0.02 in0.5 mm
10:15 AM 73.5°F23.1°C 68.0°F20.0°C 83% 3.0 mph WSW4.8 kmh WSW 11.0 mph17.7 kmh 29.86 in1011.2 mb 0.00 in0.0 mm 0.00 in/hr0.0 mm/hr 0.02 in0.5 mm
10:00 AM 73.5°F23.1°C 68.0°F20.0°C 83% 4.0 mph WSW6.4 kmh WSW 13.0 mph20.9 kmh 29.86 in1011.2 mb 0.00 in0.0 mm 0.00 in/hr0.0 mm/hr 0.02 in0.5 mm
09:45 AM 73.3°F22.9°C 68.2°F20.1°C 84% 2.0 mph W3.2 kmh W 7.0 mph11.3 kmh 29.85 in1010.8 mb 0.00 in0.0 mm 0.00 in/hr0.0 mm/hr 0.02 in0.5 mm
09:30 AM 73.0°F22.8°C 68.2°F20.1°C 85% 2.0 mph WSW3.2 kmh WSW 7.0 mph11.3 kmh 29.84 in1010.5 mb 0.00 in0.0 mm 0.00 in/hr0.0 mm/hr 0.02 in0.5 mm
09:15 AM 72.3°F22.4°C 68.2°F20.1°C 87% 1.0 mph WSW1.6 kmh WSW 7.0 mph11.3 kmh 29.84 in1010.5 mb 0.00 in0.0 mm 0.00 in/hr0.0 mm/hr 0.02 in0.5 mm
09:00 AM 71.8°F22.1°C 67.7°F19.8°C 87% Calm Calm 4.0 mph6.4 kmh 29.84 in1010.5 mb 0.00 in0.0 mm 0.00 in/hr0.0 mm/hr 0.02 in0.5 mm
08:45 AM 72.0°F22.2°C 67.9°F19.9°C 87% Calm Calm 5.0 mph8.0 kmh 29.83 in1010.2 mb 0.00 in0.0 mm 0.00 in/hr0.0 mm/hr 0.02 in0.5 mm
08:30 AM 72.0°F22.2°C 67.9°F19.9°C 87% 1.0 mph WSW1.6 kmh WSW 7.0 mph11.3 kmh 29.84 in1010.5 mb 0.00 in0.0 mm 0.00 in/hr0.0 mm/hr 0.02 in0.5 mm
08:15 AM 71.6°F22.0°C 67.9°F19.9°C 88% 2.0 mph WSW3.2 kmh WSW 9.0 mph14.5 kmh 29.84 in1010.5 mb 0.00 in0.0 mm 0.00 in/hr0.0 mm/hr 0.02 in0.5 mm
08:00 AM 71.1°F21.7°C 68.0°F20.0°C 90% 2.0 mph W3.2 kmh W 7.0 mph11.3 kmh 29.84 in1010.5 mb 0.02 in0.5 mm 0.00 in/hr0.0 mm/hr 0.02 in0.5 mm
07:45 AM 70.3°F21.3°C 67.5°F19.7°C 91% Calm Calm 3.0 mph4.8 kmh 29.84 in1010.5 mb 0.02 in0.5 mm 0.00 in/hr0.0 mm/hr 0.02 in0.5 mm
07:30 AM 70.8°F21.6°C 67.7°F19.8°C 90% 2.0 mph W3.2 kmh W 6.0 mph9.7 kmh 29.85 in1010.8 mb 0.02 in0.5 mm 0.00 in/hr0.0 mm/hr 0.02 in0.5 mm
07:15 AM 70.4°F21.3°C 68.0°F20.0°C 92% 2.0 mph WSW3.2 kmh WSW 5.0 mph8.0 kmh 29.84 in1010.5 mb 0.02 in0.5 mm 0.08 in/hr2.0 mm/hr 0.02 in0.5 mm
07:00 AM 69.6°F20.9°C 67.8°F19.9°C 94% 1.0 mph WSW1.6 kmh WSW 5.0 mph8.0 kmh 29.84 in1010.5 mb 0.00 in0.0 mm 0.00 in/hr0.0 mm/hr 0.00 in0.0 mm
06:45 AM 68.4°F20.2°C 67.2°F19.6°C 96% Calm Calm 1.0 mph1.6 kmh 29.83 in1010.2 mb 0.00 in0.0 mm 0.00 in/hr0.0 mm/hr 0.00 in0.0 mm
06:30 AM 68.3°F20.2°C 67.1°F19.5°C 96% Calm Calm 1.0 mph1.6 kmh 29.83 in1010.2 mb 0.00 in0.0 mm 0.00 in/hr0.0 mm/hr 0.00 in0.0 mm
06:15 AM 67.3°F19.6°C 66.1°F18.9°C 96% Calm Calm -- 29.83 in1010.2 mb 0.00 in0.0 mm 0.00 in/hr0.0 mm/hr 0.00 in0.0 mm
06:00 AM 66.8°F19.3°C 65.3°F18.5°C 95% Calm Calm 2.0 mph3.2 kmh 29.83 in1010.2 mb 0.00 in0.0 mm 0.00 in/hr0.0 mm/hr 0.00 in0.0 mm
05:45 AM 66.4°F19.1°C 64.9°F18.3°C 95% Calm Calm -- 29.83 in1010.2 mb 0.00 in0.0 mm 0.00 in/hr0.0 mm/hr 0.00 in0.0 mm
05:30 AM 66.1°F18.9°C 64.3°F17.9°C 94% Calm Calm -- 29.84 in1010.5 mb 0.00 in0.0 mm 0.00 in/hr0.0 mm/hr 0.00 in0.0 mm
05:15 AM 66.8°F19.3°C 65.0°F18.3°C 94% Calm Calm -- 29.85 in1010.8 mb 0.00 in0.0 mm 0.00 in/hr0.0 mm/hr 0.00 in0.0 mm
05:00 AM 67.8°F19.9°C 65.7°F18.7°C 93% Calm Calm -- 29.86 in1011.2 mb 0.00 in0.0 mm 0.00 in/hr0.0 mm/hr 0.00 in0.0 mm
04:45 AM 68.3°F20.2°C 66.5°F19.2°C 94% Calm Calm -- 29.86 in1011.2 mb 0.00 in0.0 mm 0.00 in/hr0.0 mm/hr 0.00 in0.0 mm
04:30 AM 68.3°F20.2°C 66.8°F19.3°C 95% 1.0 mph SSW1.6 kmh SSW 4.0 mph6.4 kmh 29.85 in1010.8 mb 0.00 in0.0 mm 0.00 in/hr0.0 mm/hr 0.00 in0.0 mm
04:15 AM 67.8°F19.9°C 66.6°F19.2°C 96% Calm Calm -- 29.86 in1011.2 mb 0.00 in0.0 mm 0.00 in/hr0.0 mm/hr 0.00 in0.0 mm
04:00 AM 67.9°F19.9°C 66.7°F19.3°C 96% Calm Calm 1.0 mph1.6 kmh 29.86 in1011.2 mb 0.00 in0.0 mm 0.00 in/hr0.0 mm/hr 0.00 in0.0 mm
03:45 AM 67.9°F19.9°C 67.0°F19.4°C 97% 1.0 mph W1.6 kmh W 4.0 mph6.4 kmh 29.87 in1011.5 mb 0.00 in0.0 mm 0.00 in/hr0.0 mm/hr 0.00 in0.0 mm
03:30 AM 66.8°F19.3°C 66.2°F19.0°C 98% 1.0 mph WSW1.6 kmh WSW 6.0 mph9.7 kmh 29.87 in1011.5 mb 0.00 in0.0 mm 0.00 in/hr0.0 mm/hr 0.00 in0.0 mm
03:15 AM 65.5°F18.6°C 64.6°F18.1°C 97% Calm Calm -- 29.87 in1011.5 mb 0.00 in0.0 mm 0.00 in/hr0.0 mm/hr 0.00 in0.0 mm
03:00 AM 65.2°F18.4°C 64.3°F17.9°C 97% Calm Calm -- 29.88 in1011.9 mb 0.00 in0.0 mm 0.00 in/hr0.0 mm/hr 0.00 in0.0 mm
02:45 AM 64.5°F18.1°C 63.6°F17.6°C 97% Calm Calm -- 29.88 in1011.9 mb 0.00 in0.0 mm 0.00 in/hr0.0 mm/hr 0.00 in0.0 mm
02:30 AM 64.5°F18.1°C 63.6°F17.6°C 97% Calm Calm -- 29.88 in1011.9 mb 0.00 in0.0 mm 0.00 in/hr0.0 mm/hr 0.00 in0.0 mm
02:15 AM 65.0°F18.3°C 64.1°F17.8°C 97% Calm Calm -- 29.89 in1012.2 mb 0.00 in0.0 mm 0.00 in/hr0.0 mm/hr 0.00 in0.0 mm
02:00 AM 65.2°F18.4°C 64.3°F17.9°C 97% Calm Calm -- 29.89 in1012.2 mb 0.00 in0.0 mm 0.00 in/hr0.0 mm/hr 0.00 in0.0 mm
01:45 AM 64.5°F18.1°C 63.3°F17.4°C 96% Calm Calm 3.0 mph4.8 kmh 29.89 in1012.2 mb 0.00 in0.0 mm 0.00 in/hr0.0 mm/hr 0.00 in0.0 mm
01:30 AM 64.8°F18.2°C 63.6°F17.6°C 96% Calm Calm -- 29.90 in1012.5 mb 0.00 in0.0 mm 0.00 in/hr0.0 mm/hr 0.00 in0.0 mm
01:15 AM 64.7°F18.2°C 63.5°F17.5°C 96% Calm Calm -- 29.91 in1012.9 mb 0.00 in0.0 mm 0.00 in/hr0.0 mm/hr 0.00 in0.0 mm
01:00 AM 64.8°F18.2°C 63.6°F17.6°C 96% Calm Calm -- 29.93 in1013.5 mb 0.00 in0.0 mm 0.00 in/hr0.0 mm/hr 0.00 in0.0 mm
12:45 AM 65.0°F18.3°C 63.8°F17.7°C 96% Calm Calm -- 29.93 in1013.5 mb 0.00 in0.0 mm 0.00 in/hr0.0 mm/hr 0.00 in0.0 mm
12:30 AM 65.3°F18.5°C 64.1°F17.8°C 96% Calm Calm -- 29.93 in1013.5 mb 0.00 in0.0 mm 0.00 in/hr0.0 mm/hr 0.00 in0.0 mm
12:15 AM 65.6°F18.7°C 64.1°F17.8°C 95% Calm Calm -- 29.93 in1013.5 mb 0.00 in0.0 mm 0.00 in/hr0.0 mm/hr 0.00 in0.0 mm
12:00 AM 66.1°F18.9°C 64.6°F18.1°C 95% Calm Calm -- 29.93 in1013.5 mb 0.00 in0.0 mm 0.00 in/hr0.0 mm/hr 0.00 in0.0 mm